Time;durP1;ratioP1;P1;durP2;ratioP2;P2;SDS_P1;SDS_P2;PMS_P1;PMS_P2;Temp;Humidity;BMP_temperature;BMP_pressure;BME280_temperature;BME280_humidity;BME280_pressure;Samples;Min_cycle;Max_cycle;Signal;HPM_P1;HPM_P2
2022/05/12 00:00:44;;;;;;;7.93;5.85;;;20.70;65.20;;;;;;5124351;28;20400;-95
2022/05/12 00:03:12;;;;;;;11.00;5.97;;;20.60;65.70;;;;;;5103865;28;20035;-96
2022/05/12 00:05:37;;;;;;;9.55;6.10;;;20.60;66.00;;;;;;5121689;28;20032;-96
2022/05/12 00:08:04;;;;;;;12.13;6.45;;;20.60;66.10;;;;;;5106204;28;20016;-96
2022/05/12 00:10:30;;;;;;;10.65;6.47;;;20.60;66.20;;;;;;5110431;28;20084;-94
2022/05/12 00:12:58;;;;;;;8.52;6.03;;;20.60;66.20;;;;;;5107206;28;20077;-95
2022/05/12 00:15:27;;;;;;;11.35;6.38;;;20.50;66.40;;;;;;5106080;28;20044;-94
2022/05/12 00:17:53;;;;;;;8.60;6.95;;;20.50;66.40;;;;;;5103884;28;20016;-96
2022/05/12 00:20:21;;;;;;;11.43;6.32;;;20.50;66.70;;;;;;5104514;28;20038;-96
2022/05/12 00:22:48;;;;;;;9.50;6.38;;;20.50;67.10;;;;;;5104051;28;20024;-96
2022/05/12 00:25:20;;;;;;;7.80;6.47;;;20.50;66.90;;;;;;5103721;28;20032;-94
2022/05/12 00:27:46;;;;;;;8.95;6.18;;;20.50;67.00;;;;;;5113331;28;20020;-91
2022/05/12 00:30:13;;;;;;;8.07;6.07;;;20.40;66.80;;;;;;5115466;28;20028;-90
2022/05/12 00:32:42;;;;;;;9.73;6.20;;;20.30;67.40;;;;;;5116435;28;20027;-92
2022/05/12 00:35:10;;;;;;;7.03;6.32;;;20.30;67.40;;;;;;5115893;28;20141;-89
2022/05/12 00:37:35;;;;;;;11.38;5.28;;;20.30;67.30;;;;;;5116946;28;20030;-92
2022/05/12 00:40:01;;;;;;;7.32;5.50;;;20.30;67.40;;;;;;5116526;28;20024;-92
2022/05/12 00:42:27;;;;;;;7.60;5.30;;;20.20;67.00;;;;;;5116463;28;20043;-91
2022/05/12 00:44:53;;;;;;;9.95;6.07;;;20.20;67.50;;;;;;5117450;28;20020;-93
2022/05/12 00:47:18;;;;;;;7.20;5.60;;;20.20;67.60;;;;;;5116736;28;20023;-91
2022/05/12 00:49:47;;;;;;;8.60;5.78;;;20.10;68.10;;;;;;5116740;28;20110;-93
2022/05/12 00:52:23;;;;;;;8.13;5.57;;;20.10;67.90;;;;;;5107781;28;20070;-92
2022/05/12 00:54:57;;;;;;;8.77;5.75;;;20.10;67.90;;;;;;5119030;28;20035;-93
2022/05/12 00:57:38;;;;;;;6.30;5.25;;;20.10;68.00;;;;;;5102278;28;20020;-92
2022/05/12 01:00:05;;;;;;;;;;;20.10;68.10;;;;;;5102465;28;20476;-92
2022/05/12 01:02:33;;;;;;;10.60;5.78;;;20.10;68.20;;;;;;5118559;28;19969;-92
2022/05/12 01:05:00;;;;;;;6.55;5.70;;;20.10;68.30;;;;;;5106899;28;20091;-92
2022/05/12 01:07:25;;;;;;;11.88;5.70;;;20.10;68.40;;;;;;5112303;28;20021;-91
2022/05/12 01:09:52;;;;;;;7.00;5.65;;;20.10;68.40;;;;;;5106580;28;20036;-93
2022/05/12 01:12:18;;;;;;;6.70;5.70;;;20.10;68.80;;;;;;5099298;28;20039;-93
2022/05/12 01:14:44;;;;;;;6.75;5.38;;;20.10;68.40;;;;;;5096738;28;20173;-92
2022/05/12 01:17:10;;;;;;;11.00;6.75;;;20.10;68.20;;;;;;5115503;28;20071;-87
2022/05/12 01:19:41;;;;;;;7.75;5.70;;;20.10;68.30;;;;;;5114614;28;20161;-93
2022/05/12 01:22:10;;;;;;;8.57;5.75;;;20.10;68.30;;;;;;5096799;28;20028;-91
2022/05/12 01:24:42;;;;;;;8.10;5.60;;;20.10;68.10;;;;;;5097388;28;20058;-94
2022/05/12 01:27:22;;;;;;;13.98;6.03;;;20.10;68.10;;;;;;5096951;28;20024;-93
2022/05/12 01:29:50;;;;;;;10.43;5.95;;;20.10;68.50;;;;;;5097437;28;20027;-92
2022/05/12 01:35:02;;;;;;;7.60;6.25;;;20.10;68.40;;;;;;5098858;28;20487;-93
2022/05/12 01:37:27;;;;;;;7.03;5.78;;;20.10;68.50;;;;;;5114254;28;20024;-93
2022/05/12 01:39:53;;;;;;;8.35;5.90;;;20.10;69.00;;;;;;5110747;28;20047;-91
2022/05/12 01:42:19;;;;;;;10.27;6.80;;;20.10;69.00;;;;;;5112109;28;20035;-91
2022/05/12 01:44:45;;;;;;;9.90;6.78;;;20.00;68.80;;;;;;5102617;28;20028;-92
2022/05/12 01:47:12;;;;;;;7.65;6.10;;;20.00;69.10;;;;;;5100034;28;20031;-92
2022/05/12 01:49:38;;;;;;;9.27;5.95;;;20.00;69.20;;;;;;5104022;28;20035;-91
2022/05/12 01:52:05;;;;;;;9.15;6.28;;;20.00;69.10;;;;;;5103248;28;20082;-93
2022/05/12 01:54:31;;;;;;;8.75;6.63;;;20.00;69.40;;;;;;5097518;28;20572;-93
2022/05/12 01:56:57;;;;;;;13.02;6.18;;;20.00;69.30;;;;;;5115434;28;20051;-93
2022/05/12 01:59:23;;;;;;;9.52;6.07;;;20.00;69.20;;;;;;5102317;28;20020;-92
2022/05/12 02:01:49;;;;;;;10.40;7.15;;;20.00;69.30;;;;;;5100651;28;20024;-91
2022/05/12 02:04:16;;;;;;;8.10;6.35;;;20.00;69.30;;;;;;5101133;28;20028;-89
2022/05/12 02:06:42;;;;;;;11.27;7.00;;;20.00;69.70;;;;;;5098589;28;20032;-92
2022/05/12 02:09:09;;;;;;;9.02;6.30;;;19.90;69.50;;;;;;5097623;28;20118;-90
2022/05/12 02:11:35;;;;;;;8.20;6.57;;;19.90;69.40;;;;;;5095808;28;20034;-91
2022/05/12 02:14:01;;;;;;;11.75;7.03;;;20.00;69.60;;;;;;5095751;28;20101;-93
2022/05/12 02:16:27;;;;;;;7.57;6.63;;;19.90;69.60;;;;;;5097825;28;20044;-93
2022/05/12 02:18:53;;;;;;;11.45;7.10;;;19.90;70.00;;;;;;5098848;28;20028;-92
2022/05/12 02:21:20;;;;;;;7.15;6.50;;;19.90;69.90;;;;;;5098889;28;20105;-92
2022/05/12 02:23:46;;;;;;;9.60;7.28;;;19.90;70.20;;;;;;5099049;28;20095;-92
2022/05/12 02:26:12;;;;;;;12.02;6.95;;;19.80;70.20;;;;;;5099816;28;20066;-92
2022/05/12 02:28:38;;;;;;;8.85;7.10;;;19.80;70.50;;;;;;5099977;28;20020;-91
2022/05/12 02:31:04;;;;;;;10.32;7.15;;;19.80;70.40;;;;;;5117202;28;20180;-92
2022/05/12 02:33:30;;;;;;;8.82;7.20;;;19.70;70.80;;;;;;5114778;28;20077;-91
2022/05/12 02:35:56;;;;;;;11.05;6.78;;;19.70;71.10;;;;;;5111901;28;20032;-93
2022/05/12 02:38:23;;;;;;;10.07;6.53;;;19.70;71.60;;;;;;5118841;28;20031;-93
2022/05/12 02:40:49;;;;;;;7.90;6.60;;;19.70;71.50;;;;;;5099474;28;20031;-92
2022/05/12 02:43:23;;;;;;;7.53;6.72;;;19.60;71.70;;;;;;5098148;28;20385;-91
2022/05/12 02:45:59;;;;;;;12.40;7.38;;;19.60;71.80;;;;;;5115730;28;20381;-89
2022/05/12 02:48:29;;;;;;;8.27;7.10;;;19.60;71.80;;;;;;5113628;28;20032;-91
2022/05/12 02:50:56;;;;;;;8.68;6.70;;;19.60;71.60;;;;;;5097376;28;20376;-90
2022/05/12 02:53:22;;;;;;;10.23;6.47;;;19.60;71.60;;;;;;5098107;28;20028;-91
2022/05/12 02:55:48;;;;;;;13.00;7.22;;;19.60;71.50;;;;;;5097416;28;20023;-92
2022/05/12 02:58:14;;;;;;;11.43;7.00;;;19.50;71.50;;;;;;5098955;28;20113;-91
2022/05/12 03:00:40;;;;;;;10.95;7.45;;;19.50;71.50;;;;;;5098838;28;20103;-91
2022/05/12 03:03:07;;;;;;;8.85;6.47;;;19.50;71.40;;;;;;5098197;28;20035;-91
2022/05/12 03:05:34;;;;;;;5.97;5.38;;;19.50;71.10;;;;;;5098144;28;20129;-91
2022/05/12 03:08:00;;;;;;;7.65;5.60;;;19.40;71.00;;;;;;5097289;28;20107;-91
2022/05/12 03:10:26;;;;;;;6.03;5.28;;;19.40;71.20;;;;;;5097628;28;20067;-92
2022/05/12 03:12:52;;;;;;;6.90;5.28;;;19.40;71.30;;;;;;5098199;28;20028;-92
2022/05/12 03:15:18;;;;;;;6.63;5.63;;;19.40;71.10;;;;;;5097111;28;20040;-92
2022/05/12 03:17:44;;;;;;;6.45;5.43;;;19.30;71.00;;;;;;5113098;28;20089;-91
2022/05/12 03:20:14;;;;;;;9.07;6.00;;;19.20;71.30;;;;;;5096025;28;20097;-91
2022/05/12 03:22:41;;;;;;;7.70;5.70;;;19.20;72.00;;;;;;5096179;28;20489;-92
2022/05/12 03:25:10;;;;;;;7.63;5.13;;;19.20;71.80;;;;;;5096824;28;20039;-92
2022/05/12 03:27:37;;;;;;;9.27;6.10;;;19.20;72.00;;;;;;5094254;28;20024;-92
2022/05/12 03:30:05;;;;;;;10.45;6.22;;;19.20;71.50;;;;;;5096704;28;20035;-92
2022/05/12 03:32:30;;;;;;;6.90;5.50;;;19.20;71.70;;;;;;5096424;28;20021;-92
2022/05/12 03:34:56;;;;;;;6.60;5.78;;;19.10;72.10;;;;;;5112740;28;20098;-93
2022/05/12 03:37:22;;;;;;;10.18;5.50;;;19.10;72.40;;;;;;5096901;28;20054;-92
2022/05/12 03:39:47;;;;;;;8.18;5.90;;;19.10;72.50;;;;;;5096639;28;20032;-92
2022/05/12 03:42:15;;;;;;;6.90;5.32;;;19.10;72.20;;;;;;5095986;28;20038;-91
2022/05/12 03:44:53;;;;;;;10.68;5.78;;;19.10;72.40;;;;;;5111670;28;20552;-91
2022/05/12 03:47:25;;;;;;;13.02;5.93;;;19.10;72.80;;;;;;5112392;28;20488;-91
2022/05/12 03:49:52;;;;;;;;;;;19.10;72.10;;;;;;5111798;28;20200;-90
2022/05/12 03:52:18;;;;;;;8.32;5.00;;;19.00;72.30;;;;;;5095104;28;19908;-92
2022/05/12 03:54:44;;;;;;;5.20;4.53;;;19.00;72.70;;;;;;5095243;28;20330;-90
2022/05/12 03:57:12;;;;;;;7.80;5.32;;;19.00;72.50;;;;;;5112648;28;20044;-90
2022/05/12 03:59:39;;;;;;;7.43;5.40;;;19.00;72.00;;;;;;5095780;28;20085;-92
2022/05/12 04:02:06;;;;;;;6.82;5.55;;;19.10;72.30;;;;;;5096230;28;20039;-90
2022/05/12 04:04:33;;;;;;;9.88;5.30;;;19.10;72.50;;;;;;5111702;28;20095;-91
2022/05/12 04:07:00;;;;;;;9.65;6.30;;;19.20;72.40;;;;;;5096633;28;20016;-92
2022/05/12 04:09:26;;;;;;;8.23;5.72;;;19.20;72.20;;;;;;5095842;28;20469;-90
2022/05/12 04:11:52;;;;;;;8.70;6.38;;;19.20;72.20;;;;;;5096389;28;20028;-92
2022/05/12 04:14:18;;;;;;;6.82;5.50;;;19.30;71.90;;;;;;5096610;28;20349;-89
2022/05/12 04:16:44;;;;;;;8.05;5.43;;;19.30;72.50;;;;;;5092540;28;21560;-90
2022/05/12 04:21:58;;;;;;;10.23;5.65;;;19.50;72.10;;;;;;5095190;28;20096;-90
2022/05/12 04:24:23;;;;;;;8.25;5.70;;;19.60;71.60;;;;;;5094009;28;20118;-88
2022/05/12 04:26:49;;;;;;;6.85;5.72;;;19.70;71.40;;;;;;5111011;28;20031;-90
2022/05/12 04:29:15;;;;;;;9.38;5.07;;;19.80;70.70;;;;;;5095643;28;20032;-89
2022/05/12 04:31:41;;;;;;;10.63;5.38;;;20.00;70.00;;;;;;5094651;28;20024;-89
2022/05/12 04:36:52;;;;;;;10.55;5.63;;;20.20;69.10;;;;;;5096088;28;20039;-88
2022/05/12 04:39:18;;;;;;;9.65;5.35;;;20.40;67.60;;;;;;5097247;28;20082;-88
2022/05/12 04:41:45;;;;;;;8.50;5.28;;;20.60;67.30;;;;;;5095665;28;20024;-91
2022/05/12 04:44:12;;;;;;;7.70;4.95;;;20.70;66.20;;;;;;5095763;28;20042;-88
2022/05/12 04:46:40;;;;;;;7.55;5.43;;;20.90;65.70;;;;;;5093513;28;20024;-87
2022/05/12 04:49:07;;;;;;;9.70;5.47;;;21.00;66.00;;;;;;5109320;28;20028;-88
2022/05/12 04:51:33;;;;;;;9.95;4.95;;;21.30;64.70;;;;;;5108966;28;20115;-87
2022/05/12 04:53:59;;;;;;;10.48;5.60;;;21.40;63.90;;;;;;5092291;28;20098;-87
2022/05/12 04:56:25;;;;;;;7.68;5.57;;;21.60;63.30;;;;;;5093114;28;20370;-88
2022/05/12 04:58:51;;;;;;;9.13;5.50;;;21.90;62.40;;;;;;5109660;28;20031;-86
2022/05/12 05:01:17;;;;;;;10.02;5.10;;;22.10;61.60;;;;;;5092826;28;20035;-87
2022/05/12 05:03:43;;;;;;;8.90;5.20;;;22.30;61.20;;;;;;5097014;28;20422;-86
2022/05/12 05:06:09;;;;;;;7.65;5.07;;;22.50;60.20;;;;;;5102736;28;20077;-85
2022/05/12 05:08:35;;;;;;;11.57;5.35;;;22.80;60.10;;;;;;5096523;28;20383;-87
2022/05/12 05:11:04;;;;;;;9.13;5.28;;;23.00;59.10;;;;;;5092907;28;20062;-87
2022/05/12 05:13:30;;;;;;;10.35;5.50;;;23.20;58.00;;;;;;5093033;28;20034;-86
2022/05/12 05:15:56;;;;;;;11.27;5.03;;;23.50;56.80;;;;;;5092680;28;20051;-88
2022/05/12 05:18:22;;;;;;;9.40;4.85;;;23.70;56.50;;;;;;5092881;28;20437;-87
2022/05/12 05:20:49;;;;;;;9.30;5.18;;;24.00;55.00;;;;;;5092687;28;20088;-87
2022/05/12 05:23:23;;;;;;;9.38;4.88;;;24.50;54.00;;;;;;5092904;28;20028;-88
2022/05/12 05:25:50;;;;;;;6.07;4.57;;;25.30;53.10;;;;;;5109639;28;20046;-88
2022/05/12 05:28:16;;;;;;;7.90;4.40;;;26.80;49.30;;;;;;5093398;28;20429;-87
2022/05/12 05:30:42;;;;;;;14.43;5.03;;;28.10;45.50;;;;;;5097706;28;20039;-91
2022/05/12 05:33:09;;;;;;;7.88;4.05;;;29.20;43.20;;;;;;5101459;28;20028;-87
2022/05/12 05:35:35;;;;;;;10.68;4.65;;;30.20;41.10;;;;;;5095675;28;20099;-91
2022/05/12 05:38:01;;;;;;;5.72;3.70;;;31.10;39.60;;;;;;5094565;28;20044;-92
2022/05/12 05:40:28;;;;;;;5.05;3.33;;;32.00;38.00;;;;;;5093972;28;20472;-92
2022/05/12 05:42:56;;;;;;;6.90;3.53;;;32.80;36.40;;;;;;5095027;28;20028;-91
2022/05/12 05:45:23;;;;;;;3.75;3.38;;;33.60;35.40;;;;;;5093187;28;20195;-91
2022/05/12 05:47:51;;;;;;;4.00;3.17;;;34.40;33.40;;;;;;5093883;28;20093;-91
2022/05/12 05:50:20;;;;;;;7.25;3.28;;;35.10;32.70;;;;;;5093507;28;20039;-89
2022/05/12 05:55:32;;;;;;;5.65;3.33;;;36.60;31.20;;;;;;5094740;28;20094;-91
2022/05/12 05:57:59;;;;;;;5.63;3.42;;;37.50;30.10;;;;;;5094933;28;20028;-92
2022/05/12 06:00:25;;;;;;;9.10;3.15;;;38.00;29.80;;;;;;5093929;28;20032;-90
2022/05/12 06:02:51;;;;;;;4.72;2.80;;;38.50;29.40;;;;;;5094842;28;20039;-91
2022/05/12 06:05:17;;;;;;;10.07;3.50;;;39.00;28.50;;;;;;5094839;28;20020;-91
2022/05/12 06:07:44;;;;;;;8.40;3.60;;;39.40;28.20;;;;;;5094264;28;20389;-90
2022/05/12 06:10:10;;;;;;;4.10;2.90;;;39.60;28.20;;;;;;5093322;28;20393;-91
2022/05/12 06:12:37;;;;;;;4.82;2.90;;;39.90;28.20;;;;;;5097454;28;20484;-90
2022/05/12 06:15:04;;;;;;;6.28;3.47;;;40.00;27.70;;;;;;5095568;28;20059;-91
2022/05/12 06:17:30;;;;;;;5.85;3.83;;;40.20;27.50;;;;;;5123364;28;20048;-87
2022/05/12 06:20:14;;;;;;;6.32;3.00;;;39.90;27.90;;;;;;5110094;28;20073;-90
2022/05/12 06:22:40;;;;;;;6.18;2.90;;;38.70;27.90;;;;;;5109084;28;20392;-90
2022/05/12 06:25:09;;;;;;;8.15;3.03;;;37.50;28.30;;;;;;5093910;28;20087;-92
2022/05/12 06:27:35;;;;;;;8.02;3.08;;;36.90;29.20;;;;;;5108473;28;20056;-91
2022/05/12 06:30:01;;;;;;;5.72;3.30;;;36.00;29.50;;;;;;5109626;28;20028;-90
2022/05/12 06:32:27;;;;;;;8.25;2.92;;;35.40;29.90;;;;;;5092735;28;20056;-89
2022/05/12 06:34:54;;;;;;;7.90;3.17;;;34.90;30.40;;;;;;5112028;28;20476;-89
2022/05/12 06:37:20;;;;;;;8.25;3.33;;;34.50;31.20;;;;;;5105898;28;20099;-91
2022/05/12 06:39:46;;;;;;;9.52;2.92;;;34.40;31.60;;;;;;5110259;28;20035;-90
2022/05/12 06:42:12;;;;;;;3.45;2.85;;;34.40;31.30;;;;;;5094273;28;20432;-92
2022/05/12 06:44:41;;;;;;;5.22;2.33;;;34.60;30.90;;;;;;5093386;28;20375;-90
2022/05/12 06:47:08;;;;;;;5.95;2.65;;;34.70;30.60;;;;;;5093772;28;20028;-92
2022/05/12 06:49:34;;;;;;;7.65;2.60;;;34.90;30.40;;;;;;5094411;28;20024;-91
2022/05/12 06:52:00;;;;;;;8.88;2.60;;;35.10;30.60;;;;;;5093486;28;20468;-93
2022/05/12 06:54:28;;;;;;;6.75;2.60;;;35.00;30.20;;;;;;5094658;28;20091;-92
2022/05/12 06:56:53;;;;;;;9.80;2.75;;;35.20;30.60;;;;;;5094534;28;20119;-92
2022/05/12 06:59:19;;;;;;;5.43;2.67;;;35.50;30.50;;;;;;5110195;28;20165;-92
2022/05/12 07:01:45;;;;;;;7.22;2.80;;;35.60;30.70;;;;;;5095181;28;20381;-92
2022/05/12 07:04:11;;;;;;;8.02;2.72;;;35.60;30.40;;;;;;5097114;28;20369;-92
2022/05/12 07:06:37;;;;;;;10.73;2.75;;;35.30;30.40;;;;;;5096471;28;20043;-92
2022/05/12 07:09:03;;;;;;;6.72;2.67;;;35.20;30.20;;;;;;5096579;28;20032;-91
2022/05/12 07:11:29;;;;;;;5.18;2.78;;;34.80;30.50;;;;;;5097595;28;20024;-92
2022/05/12 07:13:54;;;;;;;7.88;2.80;;;34.50;31.20;;;;;;5098594;28;20036;-88
2022/05/12 07:16:20;;;;;;;9.65;3.00;;;34.00;31.60;;;;;;5098314;28;20125;-92
2022/05/12 07:18:46;;;;;;;5.50;2.60;;;33.70;32.00;;;;;;5094472;28;20020;-92
2022/05/12 07:26:42;;;;;;;7.75;2.75;;;33.50;31.50;;;;;;5097253;28;20585;-89
2022/05/12 07:29:11;;;;;;;3.30;2.15;;;33.40;31.70;;;;;;5099001;28;20024;-90
2022/05/12 07:31:37;;;;;;;5.43;2.15;;;33.40;32.10;;;;;;5097557;28;20099;-91
2022/05/12 07:34:03;;;;;;;5.70;2.53;;;33.40;32.00;;;;;;5098208;28;20034;-91
2022/05/12 07:36:36;;;;;;;7.40;2.58;;;33.40;31.70;;;;;;5097947;28;20045;-90
2022/05/12 07:39:02;;;;;;;9.80;2.88;;;33.50;31.90;;;;;;5077851;28;20028;-91
2022/05/12 07:41:29;;;;;;;6.93;2.42;;;33.40;31.00;;;;;;5076952;28;20028;-92
2022/05/12 07:43:55;;;;;;;7.18;2.50;;;33.30;31.40;;;;;;5075903;28;20048;-93
2022/05/12 07:46:24;;;;;;;9.77;3.30;;;33.30;31.40;;;;;;5090936;28;20035;-93
2022/05/12 07:48:50;;;;;;;6.25;2.70;;;32.90;31.00;;;;;;5096551;28;20043;-93
2022/05/12 07:51:17;;;;;;;6.68;2.50;;;33.20;31.40;;;;;;5113288;28;20114;-92
2022/05/12 07:53:47;;;;;;;5.63;2.40;;;33.30;32.10;;;;;;5097017;28;20103;-94
2022/05/12 07:56:14;;;;;;;4.70;2.50;;;33.60;31.40;;;;;;5098076;28;20032;-93
2022/05/12 07:58:40;;;;;;;4.50;2.22;;;33.70;30.60;;;;;;5097666;28;20058;-91
2022/05/12 08:01:06;;;;;;;11.65;2.45;;;34.00;30.50;;;;;;5117271;28;20028;-93
2022/05/12 08:03:32;;;;;;;7.90;2.85;;;34.00;30.00;;;;;;5100123;28;20028;-88
2022/05/12 08:06:02;;;;;;;8.73;2.42;;;33.80;30.10;;;;;;5097297;28;20028;-93
2022/05/12 08:08:28;;;;;;;5.53;2.40;;;34.00;30.30;;;;;;5096355;28;20084;-90
2022/05/12 08:10:54;;;;;;;5.65;2.38;;;33.80;30.10;;;;;;5095844;28;20051;-92
2022/05/12 08:13:21;;;;;;;41.20;3.78;;;33.60;30.30;;;;;;5093535;28;20084;-90
2022/05/12 08:15:49;;;;;;;12.20;2.25;;;33.50;30.80;;;;;;5094523;28;20063;-91
2022/05/12 08:18:24;;;;;;;9.73;2.30;;;33.30;30.40;;;;;;5111950;28;20366;-90
2022/05/12 08:20:50;;;;;;;11.77;2.60;;;32.90;30.60;;;;;;5106319;28;20028;-90
2022/05/12 08:23:17;;;;;;;13.05;2.10;;;32.60;30.10;;;;;;5108744;28;20028;-90
2022/05/12 08:25:43;;;;;;;6.75;2.58;;;32.20;30.50;;;;;;5109223;28;20071;-92
2022/05/12 08:28:13;;;;;;;5.65;2.38;;;31.90;31.50;;;;;;5110726;28;20055;-90
2022/05/12 08:30:38;;;;;;;18.10;2.80;;;31.60;32.00;;;;;;5120484;28;20028;-93
2022/05/12 08:33:04;;;;;;;15.05;2.50;;;31.70;32.10;;;;;;5100055;28;20094;-93
2022/05/12 08:35:30;;;;;;;8.35;2.55;;;31.50;32.30;;;;;;5101833;28;20046;-94
2022/05/12 08:37:55;;;;;;;7.78;2.83;;;31.50;32.70;;;;;;5099337;28;20480;-92
2022/05/12 08:40:58;;;;;;;19.73;2.85;;;31.40;33.40;;;;;;5098686;28;20168;-93
2022/05/12 08:43:40;;;;;;;6.82;2.50;;;31.30;33.40;;;;;;5121490;28;20028;-92
2022/05/12 08:46:10;;;;;;;3.75;2.28;;;31.20;33.70;;;;;;5100612;28;20031;-93
2022/05/12 08:48:42;;;;;;;8.52;3.03;;;31.00;33.60;;;;;;5105662;28;20031;-88
2022/05/12 08:51:11;;;;;;;15.82;2.50;;;30.80;34.00;;;;;;5111854;28;20106;-92
2022/05/12 08:53:58;;;;;;;9.77;2.28;;;30.70;34.10;;;;;;5110590;28;20115;-90
2022/05/12 08:56:24;;;;;;;8.75;2.55;;;30.60;34.80;;;;;;5111723;28;20020;-91
2022/05/12 08:58:53;;;;;;;10.25;2.90;;;30.60;34.70;;;;;;5112672;28;20035;-91
2022/05/12 09:01:41;;;;;;;13.73;3.40;;;30.40;34.30;;;;;;5112916;28;20030;-90
2022/05/12 09:04:35;;;;;;;9.93;2.63;;;30.20;34.50;;;;;;5098638;28;20048;-92
2022/05/12 09:07:00;;;;;;;8.75;2.47;;;30.00;35.30;;;;;;5132493;28;20024;-90
2022/05/12 09:09:40;;;;;;;8.52;3.10;;;29.90;35.00;;;;;;5103583;28;20024;-90
2022/05/12 09:12:25;;;;;;;10.93;2.92;;;29.80;35.50;;;;;;5098489;28;20433;-91
2022/05/12 09:15:00;;;;;;;7.45;2.60;;;29.70;35.70;;;;;;5112114;28;20052;-92
2022/05/12 09:17:56;;;;;;;9.52;2.60;;;29.70;36.00;;;;;;5097058;28;20035;-93
2022/05/12 09:20:23;;;;;;;6.80;2.67;;;29.60;35.60;;;;;;5100326;28;20055;-91
2022/05/12 09:22:49;;;;;;;13.25;2.95;;;29.50;36.50;;;;;;5105202;28;20102;-90
2022/05/12 09:25:34;;;;;;;6.82;3.10;;;29.40;36.10;;;;;;5099585;28;20032;-91
2022/05/12 09:28:27;;;;;;;9.52;2.95;;;29.20;36.50;;;;;;5109795;28;20024;-89
2022/05/12 09:30:57;;;;;;;10.15;2.90;;;29.10;36.20;;;;;;5108679;28;20023;-92
2022/05/12 09:33:29;;;;;;;7.70;3.03;;;29.00;36.50;;;;;;5108370;28;20078;-90
2022/05/12 09:36:01;;;;;;;7.85;2.70;;;29.00;37.20;;;;;;5108973;28;20020;-90
2022/05/12 09:38:28;;;;;;;7.15;2.45;;;29.00;37.10;;;;;;5108013;28;20084;-91
2022/05/12 09:40:55;;;;;;;5.32;2.80;;;29.10;36.70;;;;;;5125637;28;20028;-92
2022/05/12 09:43:31;;;;;;;11.05;2.80;;;29.10;36.90;;;;;;5124606;28;20032;-92
2022/05/12 09:46:05;;;;;;;7.80;2.65;;;29.10;36.30;;;;;;5110715;28;20027;-91
2022/05/12 09:48:34;;;;;;;9.77;2.95;;;28.90;35.30;;;;;;5108504;28;20016;-90
2022/05/12 09:51:29;;;;;;;10.73;2.50;;;28.80;35.40;;;;;;5109910;28;20257;-91
2022/05/12 09:54:15;;;;;;;9.88;2.47;;;28.60;35.50;;;;;;5127388;28;20019;-92
2022/05/12 09:56:44;;;;;;;5.55;2.58;;;28.50;35.70;;;;;;5114290;28;20032;-89
2022/05/12 09:59:21;;;;;;;8.70;2.33;;;28.50;36.30;;;;;;5104419;28;20031;-92
2022/05/12 10:02:00;;;;;;;5.03;2.72;;;28.60;36.80;;;;;;5113124;28;20021;-91
2022/05/12 10:10:12;;;;;;;7.25;3.05;;;28.80;36.20;;;;;;5096637;28;20039;-94
2022/05/12 10:12:46;;;;;;;5.78;2.33;;;28.80;35.90;;;;;;5113177;28;20024;-94
2022/05/12 10:15:28;;;;;;;7.45;2.63;;;28.90;36.20;;;;;;5111771;28;20055;-93
2022/05/12 10:17:59;;;;;;;6.57;2.50;;;29.00;36.00;;;;;;5094515;28;20024;-93
2022/05/12 10:20:27;;;;;;;7.68;2.97;;;29.00;36.50;;;;;;5095740;28;20102;-94
2022/05/12 10:23:05;;;;;;;12.82;2.70;;;29.10;36.70;;;;;;5112096;28;20052;-93
2022/05/12 10:26:10;;;;;;;22.52;3.33;;;29.10;35.50;;;;;;5097475;28;20032;-93
2022/05/12 10:28:48;;;;;;;7.82;2.65;;;29.10;35.20;;;;;;5098494;28;20169;-93
2022/05/12 10:31:17;;;;;;;8.65;2.58;;;29.20;36.30;;;;;;5101538;28;20020;-93
2022/05/12 10:33:57;;;;;;;6.60;2.72;;;29.20;35.30;;;;;;5118075;28;20105;-88
2022/05/12 10:37:04;;;;;;;12.15;3.00;;;29.30;35.80;;;;;;5104550;28;20032;-93
2022/05/12 10:39:51;;;;;;;13.70;3.08;;;29.40;35.80;;;;;;5102785;28;20089;-94
2022/05/12 10:42:20;;;;;;;6.90;2.72;;;29.30;35.70;;;;;;5117147;28;20113;-94
2022/05/12 10:45:15;;;;;;;5.03;2.67;;;29.30;36.00;;;;;;5119648;28;20126;-87
2022/05/12 10:47:49;;;;;;;5.97;2.40;;;29.20;36.20;;;;;;5100999;28;20060;-93
2022/05/12 10:50:32;;;;;;;3.70;2.63;;;29.00;36.40;;;;;;5100298;28;20031;-92
2022/05/12 10:53:13;;;;;;;10.00;2.60;;;28.90;37.20;;;;;;5099504;28;20032;-93
2022/05/12 10:55:47;;;;;;;13.18;3.17;;;28.90;37.40;;;;;;5100579;28;20024;-92
2022/05/12 10:58:38;;;;;;;4.35;2.78;;;28.90;37.20;;;;;;5116108;28;20105;-94
2022/05/12 11:01:27;;;;;;;7.68;2.53;;;28.80;37.70;;;;;;5099612;28;20103;-93
2022/05/12 11:04:04;;;;;;;3.50;2.38;;;28.70;37.70;;;;;;5114720;28;20039;-93
2022/05/12 11:06:40;;;;;;;8.98;2.70;;;28.70;37.90;;;;;;5099544;28;20032;-92
2022/05/12 11:09:14;;;;;;;8.63;3.00;;;28.60;37.80;;;;;;5098520;28;20614;-92
2022/05/12 11:11:45;;;;;;;3.50;2.65;;;28.60;38.20;;;;;;5097567;28;20036;-91
2022/05/12 11:14:34;;;;;;;8.23;2.55;;;28.60;38.00;;;;;;5099117;28;20020;-91
2022/05/12 11:17:19;;;;;;;7.00;2.97;;;28.50;38.10;;;;;;5114264;28;20070;-93
2022/05/12 11:19:57;;;;;;;3.03;2.50;;;28.40;38.50;;;;;;5098814;28;20086;-92
2022/05/12 11:23:17;;;;;;;6.72;3.03;;;28.40;39.10;;;;;;5098041;28;20031;-92
2022/05/12 11:26:25;;;;;;;5.82;3.03;;;28.30;39.50;;;;;;5073303;28;20055;-93
2022/05/12 11:31:56;;;;;;;7.57;2.63;;;28.20;39.50;;;;;;5098278;28;20023;-92
2022/05/12 11:34:25;;;;;;;9.23;2.70;;;28.20;39.70;;;;;;5097628;28;20028;-93
2022/05/12 11:36:53;;;;;;;8.23;3.25;;;28.20;39.60;;;;;;5096866;28;20111;-94
2022/05/12 11:39:37;;;;;;;4.72;2.70;;;28.30;40.40;;;;;;5097058;28;20484;-92
2022/05/12 11:42:11;;;;;;;10.10;2.90;;;28.40;39.90;;;;;;5096924;28;20039;-92
2022/05/12 11:44:57;;;;;;;9.75;2.90;;;28.30;39.50;;;;;;5113442;28;20036;-94
2022/05/12 11:47:32;;;;;;;5.15;2.67;;;28.30;39.60;;;;;;5114029;28;20024;-93
2022/05/12 11:50:21;;;;;;;9.82;2.70;;;28.40;39.50;;;;;;5096355;28;20053;-92
2022/05/12 11:52:51;;;;;;;7.68;2.65;;;28.40;39.70;;;;;;5098165;28;20106;-93
2022/05/12 11:56:11;;;;;;;6.30;3.08;;;28.40;39.80;;;;;;5098939;28;20036;-91
2022/05/12 11:58:40;;;;;;;7.25;3.03;;;28.40;40.10;;;;;;5099003;28;20028;-93
2022/05/12 12:01:34;;;;;;;7.45;3.08;;;28.50;40.00;;;;;;5112990;28;20087;-93
2022/05/12 12:04:03;;;;;;;11.82;3.05;;;28.60;40.20;;;;;;5096226;28;20134;-93
2022/05/12 12:06:55;;;;;;;8.45;3.20;;;28.60;40.40;;;;;;5098121;28;20146;-93
2022/05/12 12:09:35;;;;;;;7.85;3.13;;;28.60;40.70;;;;;;5095141;28;20043;-92
2022/05/12 12:12:06;;;;;;;7.22;2.95;;;28.70;40.40;;;;;;5096629;28;20024;-92
2022/05/12 12:14:59;;;;;;;11.25;3.25;;;28.70;40.10;;;;;;5098003;28;20062;-94
2022/05/12 12:17:25;;;;;;;13.82;3.40;;;28.60;40.20;;;;;;5110996;28;20105;-93
2022/05/12 12:19:53;;;;;;;6.63;2.78;;;28.60;40.40;;;;;;5097503;28;20020;-88
2022/05/12 12:22:21;;;;;;;10.30;2.90;;;28.70;40.70;;;;;;5097930;28;20092;-91
2022/05/12 12:25:08;;;;;;;8.45;3.10;;;28.70;39.90;;;;;;5098330;28;20039;-92
2022/05/12 12:27:52;;;;;;;5.72;3.03;;;28.70;39.70;;;;;;5114665;28;20388;-92
2022/05/12 12:30:30;;;;;;;6.75;2.78;;;28.70;40.30;;;;;;5114163;28;20376;-93
2022/05/12 12:33:14;;;;;;;8.50;3.10;;;28.70;39.90;;;;;;5098380;28;20056;-91
2022/05/12 12:36:08;;;;;;;6.93;3.10;;;28.60;39.70;;;;;;5098826;28;20028;-93
2022/05/12 12:38:49;;;;;;;5.85;2.95;;;28.60;40.10;;;;;;5099185;28;20020;-93
2022/05/12 12:41:33;;;;;;;5.75;3.05;;;28.50;40.00;;;;;;5113448;28;20035;-93
2022/05/12 12:43:59;;;;;;;9.27;2.85;;;28.50;40.30;;;;;;5096239;28;20036;-92
2022/05/12 12:46:28;;;;;;;10.52;3.13;;;28.60;41.00;;;;;;5101223;28;20161;-92
2022/05/12 12:48:55;;;;;;;7.35;3.20;;;28.60;40.70;;;;;;5097803;28;20039;-91
2022/05/12 12:51:36;;;;;;;6.07;2.97;;;28.60;40.70;;;;;;5097809;28;20020;-93
2022/05/12 12:57:07;;;;;;;10.10;3.30;;;28.70;40.70;;;;;;5098257;28;19978;-92
2022/05/12 12:59:35;;;;;;;7.57;3.08;;;28.60;39.90;;;;;;5109897;28;20108;-92
2022/05/12 13:02:02;;;;;;;5.75;2.78;;;28.70;40.50;;;;;;5113011;28;20028;-94
2022/05/12 13:04:33;;;;;;;12.10;3.03;;;28.60;40.20;;;;;;5115484;28;20016;-90
2022/05/12 13:07:02;;;;;;;8.65;3.50;;;28.60;40.10;;;;;;5116665;28;20016;-85
2022/05/12 13:09:38;;;;;;;8.93;3.10;;;28.50;40.40;;;;;;5104025;28;20081;-91
2022/05/12 13:12:11;;;;;;;6.60;2.60;;;28.50;40.50;;;;;;5101700;28;20059;-91
2022/05/12 13:14:40;;;;;;;4.63;2.80;;;28.40;40.50;;;;;;5109156;28;20063;-91
2022/05/12 13:17:07;;;;;;;7.28;3.17;;;28.50;40.50;;;;;;5107900;28;20057;-92
2022/05/12 13:19:39;;;;;;;6.55;3.08;;;28.40;40.40;;;;;;5097753;28;20358;-93
2022/05/12 13:22:07;;;;;;;10.30;3.30;;;28.40;40.20;;;;;;5096171;28;20028;-92
2022/05/12 13:24:35;;;;;;;8.90;3.22;;;28.40;40.40;;;;;;5094387;28;20035;-93
2022/05/12 13:27:04;;;;;;;8.05;3.22;;;28.40;40.30;;;;;;5094729;28;20027;-93
2022/05/12 13:29:36;;;;;;;6.35;3.33;;;28.40;40.30;;;;;;5095510;28;20074;-93
2022/05/12 13:32:32;;;;;;;10.82;3.33;;;28.30;40.60;;;;;;5094483;28;20057;-92